sensor_id;sensor_type;location;lat;lon;timestamp;pressure;altitude;pressure_sealevel;temperature;humidity
56006;BME280;41888;44.696;10.522;2023-02-19T00:01:35;101435.28;;;3.98;100.00
56006;BME280;41888;44.696;10.522;2023-02-19T00:04:25;101446.66;;;3.99;100.00
56006;BME280;41888;44.696;10.522;2023-02-19T00:06:50;101440.03;;;4.33;100.00
56006;BME280;41888;44.696;10.522;2023-02-19T00:09:18;101428.91;;;4.01;100.00
56006;BME280;41888;44.696;10.522;2023-02-19T00:11:45;101430.31;;;4.05;100.00
56006;BME280;41888;44.696;10.522;2023-02-19T00:14:18;101424.75;;;3.89;100.00
56006;BME280;41888;44.696;10.522;2023-02-19T00:16:46;101430.84;;;3.79;100.00
56006;BME280;41888;44.696;10.522;2023-02-19T00:19:14;101436.38;;;3.86;100.00
56006;BME280;41888;44.696;10.522;2023-02-19T00:21:41;101428.50;;;3.96;100.00
56006;BME280;41888;44.696;10.522;2023-02-19T00:24:09;101430.00;;;3.98;100.00
56006;BME280;41888;44.696;10.522;2023-02-19T00:26:38;101438.50;;;4.11;100.00
56006;BME280;41888;44.696;10.522;2023-02-19T00:29:05;101426.41;;;4.18;100.00
56006;BME280;41888;44.696;10.522;2023-02-19T00:31:34;101425.88;;;3.96;100.00
56006;BME280;41888;44.696;10.522;2023-02-19T00:34:03;101427.63;;;3.66;100.00
56006;BME280;41888;44.696;10.522;2023-02-19T00:36:30;101427.72;;;3.55;100.00
56006;BME280;41888;44.696;10.522;2023-02-19T00:38:57;101436.81;;;3.32;100.00
56006;BME280;41888;44.696;10.522;2023-02-19T00:41:23;101432.75;;;3.28;100.00
56006;BME280;41888;44.696;10.522;2023-02-19T00:44:00;101435.56;;;2.96;100.00
56006;BME280;41888;44.696;10.522;2023-02-19T00:46:35;101441.38;;;3.00;100.00
56006;BME280;41888;44.696;10.522;2023-02-19T00:49:02;101440.19;;;2.83;100.00
56006;BME280;41888;44.696;10.522;2023-02-19T00:51:31;101442.94;;;2.81;100.00
56006;BME280;41888;44.696;10.522;2023-02-19T00:53:59;101442.06;;;2.71;100.00
56006;BME280;41888;44.696;10.522;2023-02-19T00:56:25;101444.88;;;2.79;100.00
56006;BME280;41888;44.696;10.522;2023-02-19T00:58:51;101445.44;;;2.83;100.00
56006;BME280;41888;44.696;10.522;2023-02-19T01:01:18;101448.56;;;2.97;100.00
56006;BME280;41888;44.696;10.522;2023-02-19T01:03:44;101449.41;;;2.98;100.00
56006;BME280;41888;44.696;10.522;2023-02-19T01:06:12;101441.97;;;3.13;100.00
56006;BME280;41888;44.696;10.522;2023-02-19T01:08:38;101432.06;;;3.16;100.00
56006;BME280;41888;44.696;10.522;2023-02-19T01:11:06;101432.09;;;3.26;100.00
56006;BME280;41888;44.696;10.522;2023-02-19T01:13:33;101437.91;;;3.29;100.00
56006;BME280;41888;44.696;10.522;2023-02-19T01:18:31;101439.72;;;3.38;100.00
56006;BME280;41888;44.696;10.522;2023-02-19T01:20:57;101431.34;;;3.54;100.00
56006;BME280;41888;44.696;10.522;2023-02-19T01:23:23;101437.03;;;3.59;100.00
56006;BME280;41888;44.696;10.522;2023-02-19T01:25:50;101427.75;;;3.65;100.00
56006;BME280;41888;44.696;10.522;2023-02-19T01:28:16;101432.44;;;3.61;100.00
56006;BME280;41888;44.696;10.522;2023-02-19T01:30:42;101430.66;;;3.62;100.00
56006;BME280;41888;44.696;10.522;2023-02-19T01:33:09;101428.03;;;3.62;100.00
56006;BME280;41888;44.696;10.522;2023-02-19T01:35:38;101423.31;;;3.65;100.00
56006;BME280;41888;44.696;10.522;2023-02-19T01:38:04;101432.03;;;3.66;100.00
56006;BME280;41888;44.696;10.522;2023-02-19T01:40:33;101424.13;;;3.56;100.00
56006;BME280;41888;44.696;10.522;2023-02-19T01:42:59;101423.84;;;3.50;100.00
56006;BME280;41888;44.696;10.522;2023-02-19T01:45:38;101411.09;;;3.45;100.00
56006;BME280;41888;44.696;10.522;2023-02-19T01:48:12;101422.63;;;3.54;100.00
56006;BME280;41888;44.696;10.522;2023-02-19T01:50:56;101423.19;;;3.57;100.00
56006;BME280;41888;44.696;10.522;2023-02-19T01:53:26;101417.50;;;3.52;100.00
56006;BME280;41888;44.696;10.522;2023-02-19T01:55:56;101408.22;;;3.58;100.00
56006;BME280;41888;44.696;10.522;2023-02-19T01:58:27;101411.56;;;3.69;100.00
56006;BME280;41888;44.696;10.522;2023-02-19T02:00:54;101411.16;;;3.64;100.00
56006;BME280;41888;44.696;10.522;2023-02-19T02:03:21;101405.88;;;3.64;100.00
56006;BME280;41888;44.696;10.522;2023-02-19T02:08:36;101398.66;;;3.66;100.00
56006;BME280;41888;44.696;10.522;2023-02-19T02:11:21;101400.03;;;3.61;100.00
56006;BME280;41888;44.696;10.522;2023-02-19T02:13:48;101393.16;;;3.69;100.00
56006;BME280;41888;44.696;10.522;2023-02-19T02:24:56;101387.59;;;3.63;100.00
56006;BME280;41888;44.696;10.522;2023-02-19T02:35:47;101374.31;;;3.83;100.00
56006;BME280;41888;44.696;10.522;2023-02-19T02:38:15;101375.16;;;3.84;100.00
56006;BME280;41888;44.696;10.522;2023-02-19T02:40:43;101366.81;;;3.89;100.00
56006;BME280;41888;44.696;10.522;2023-02-19T02:43:10;101366.41;;;3.83;100.00
56006;BME280;41888;44.696;10.522;2023-02-19T02:45:37;101369.47;;;3.89;100.00
56006;BME280;41888;44.696;10.522;2023-02-19T02:48:30;101361.97;;;3.94;100.00
56006;BME280;41888;44.696;10.522;2023-02-19T02:51:12;101364.31;;;3.97;100.00
56006;BME280;41888;44.696;10.522;2023-02-19T02:53:42;101359.63;;;3.91;100.00
56006;BME280;41888;44.696;10.522;2023-02-19T02:56:30;101361.00;;;4.04;100.00
56006;BME280;41888;44.696;10.522;2023-02-19T02:58:57;101358.22;;;4.15;100.00
56006;BME280;41888;44.696;10.522;2023-02-19T03:01:45;101358.47;;;4.32;100.00
56006;BME280;41888;44.696;10.522;2023-02-19T03:04:44;101349.34;;;4.16;100.00
56006;BME280;41888;44.696;10.522;2023-02-19T03:10:11;101345.34;;;3.93;100.00
56006;BME280;41888;44.696;10.522;2023-02-19T03:12:40;101349.25;;;3.79;100.00
56006;BME280;41888;44.696;10.522;2023-02-19T03:15:35;101351.72;;;3.71;100.00
56006;BME280;41888;44.696;10.522;2023-02-19T03:18:22;101357.94;;;3.70;100.00
56006;BME280;41888;44.696;10.522;2023-02-19T03:21:11;101357.28;;;3.78;100.00
56006;BME280;41888;44.696;10.522;2023-02-19T03:23:39;101348.94;;;3.82;100.00
56006;BME280;41888;44.696;10.522;2023-02-19T03:26:25;101357.25;;;3.97;100.00
56006;BME280;41888;44.696;10.522;2023-02-19T03:28:52;101347.28;;;4.01;100.00
56006;BME280;41888;44.696;10.522;2023-02-19T03:31:38;101355.47;;;3.88;100.00
56006;BME280;41888;44.696;10.522;2023-02-19T03:34:11;101352.69;;;3.90;100.00
56006;BME280;41888;44.696;10.522;2023-02-19T03:36:47;101353.25;;;3.93;100.00
56006;BME280;41888;44.696;10.522;2023-02-19T03:39:20;101357.13;;;3.79;100.00
56006;BME280;41888;44.696;10.522;2023-02-19T03:44:42;101345.63;;;3.61;100.00
56006;BME280;41888;44.696;10.522;2023-02-19T03:47:34;101348.78;;;3.65;100.00
56006;BME280;41888;44.696;10.522;2023-02-19T03:53:29;101343.81;;;3.71;100.00
56006;BME280;41888;44.696;10.522;2023-02-19T04:02:12;101341.75;;;3.75;100.00
56006;BME280;41888;44.696;10.522;2023-02-19T04:05:19;101336.91;;;3.80;100.00
56006;BME280;41888;44.696;10.522;2023-02-19T04:07:41;101350.06;;;3.90;100.00
56006;BME280;41888;44.696;10.522;2023-02-19T04:10:10;101334.69;;;3.85;100.00
56006;BME280;41888;44.696;10.522;2023-02-19T04:12:40;101332.19;;;3.93;100.00
56006;BME280;41888;44.696;10.522;2023-02-19T04:15:15;101326.63;;;4.06;100.00
56006;BME280;41888;44.696;10.522;2023-02-19T04:18:08;101335.22;;;4.08;100.00
56006;BME280;41888;44.696;10.522;2023-02-19T04:20:40;101341.19;;;4.10;100.00
56006;BME280;41888;44.696;10.522;2023-02-19T04:23:07;101333.97;;;4.02;100.00
56006;BME280;41888;44.696;10.522;2023-02-19T04:25:36;101337.31;;;3.95;100.00
56006;BME280;41888;44.696;10.522;2023-02-19T04:28:03;101331.06;;;3.86;100.00
56006;BME280;41888;44.696;10.522;2023-02-19T04:30:31;101340.63;;;3.77;100.00
56006;BME280;41888;44.696;10.522;2023-02-19T04:32:57;101342.03;;;3.81;100.00
56006;BME280;41888;44.696;10.522;2023-02-19T04:35:23;101341.06;;;3.73;100.00
56006;BME280;41888;44.696;10.522;2023-02-19T04:37:49;101340.78;;;3.76;100.00
56006;BME280;41888;44.696;10.522;2023-02-19T04:40:16;101333.59;;;3.68;100.00
56006;BME280;41888;44.696;10.522;2023-02-19T04:42:42;101337.72;;;3.52;100.00
56006;BME280;41888;44.696;10.522;2023-02-19T04:45:08;101339.94;;;3.56;100.00
56006;BME280;41888;44.696;10.522;2023-02-19T04:47:34;101335.78;;;3.82;100.00
56006;BME280;41888;44.696;10.522;2023-02-19T04:50:00;101339.94;;;3.75;100.00
56006;BME280;41888;44.696;10.522;2023-02-19T04:52:26;101348.69;;;3.86;100.00
56006;BME280;41888;44.696;10.522;2023-02-19T04:54:53;101343.41;;;3.95;100.00
56006;BME280;41888;44.696;10.522;2023-02-19T04:57:19;101349.09;;;3.81;100.00
56006;BME280;41888;44.696;10.522;2023-02-19T04:59:46;101350.34;;;3.87;100.00
56006;BME280;41888;44.696;10.522;2023-02-19T05:02:12;101340.50;;;3.69;100.00
56006;BME280;41888;44.696;10.522;2023-02-19T05:04:38;101340.78;;;3.66;100.00
56006;BME280;41888;44.696;10.522;2023-02-19T05:07:04;101332.63;;;3.69;100.00
56006;BME280;41888;44.696;10.522;2023-02-19T05:09:30;101332.03;;;3.66;100.00
56006;BME280;41888;44.696;10.522;2023-02-19T05:11:56;101327.31;;;3.60;100.00
56006;BME280;41888;44.696;10.522;2023-02-19T05:14:23;101329.56;;;3.64;100.00
56006;BME280;41888;44.696;10.522;2023-02-19T05:16:49;101334.41;;;3.59;100.00
56006;BME280;41888;44.696;10.522;2023-02-19T05:19:15;101328.75;;;3.64;100.00
56006;BME280;41888;44.696;10.522;2023-02-19T05:21:41;101332.59;;;3.60;100.00
56006;BME280;41888;44.696;10.522;2023-02-19T05:24:08;101334.28;;;3.80;100.00
56006;BME280;41888;44.696;10.522;2023-02-19T05:26:34;101324.59;;;3.80;100.00
56006;BME280;41888;44.696;10.522;2023-02-19T05:29:00;101330.13;;;3.77;100.00
56006;BME280;41888;44.696;10.522;2023-02-19T05:31:27;101324.84;;;3.77;100.00
56006;BME280;41888;44.696;10.522;2023-02-19T05:33:56;101329.84;;;3.80;100.00
56006;BME280;41888;44.696;10.522;2023-02-19T05:36:22;101326.09;;;3.83;100.00
56006;BME280;41888;44.696;10.522;2023-02-19T05:38:53;101322.50;;;3.74;100.00
56006;BME280;41888;44.696;10.522;2023-02-19T05:41:22;101322.91;;;3.79;100.00
56006;BME280;41888;44.696;10.522;2023-02-19T05:43:49;101318.19;;;3.83;100.00
56006;BME280;41888;44.696;10.522;2023-02-19T05:46:17;101322.75;;;3.81;100.00
56006;BME280;41888;44.696;10.522;2023-02-19T05:48:45;101321.97;;;3.80;100.00
56006;BME280;41888;44.696;10.522;2023-02-19T05:51:14;101320.53;;;3.76;100.00
56006;BME280;41888;44.696;10.522;2023-02-19T05:53:41;101320.13;;;3.81;100.00
56006;BME280;41888;44.696;10.522;2023-02-19T05:56:30;101316.09;;;3.87;100.00
56006;BME280;41888;44.696;10.522;2023-02-19T05:58:56;101315.84;;;3.80;100.00
56006;BME280;41888;44.696;10.522;2023-02-19T06:01:25;101314.88;;;3.81;100.00
56006;BME280;41888;44.696;10.522;2023-02-19T06:03:53;101313.22;;;3.80;100.00
56006;BME280;41888;44.696;10.522;2023-02-19T06:06:19;101311.84;;;3.86;100.00
56006;BME280;41888;44.696;10.522;2023-02-19T06:08:48;101309.22;;;3.86;100.00
56006;BME280;41888;44.696;10.522;2023-02-19T06:11:16;101306.72;;;3.74;100.00
56006;BME280;41888;44.696;10.522;2023-02-19T06:13:42;101316.00;;;3.78;100.00
56006;BME280;41888;44.696;10.522;2023-02-19T06:16:09;101317.34;;;3.92;100.00
56006;BME280;41888;44.696;10.522;2023-02-19T06:18:35;101316.25;;;3.95;100.00
56006;BME280;41888;44.696;10.522;2023-02-19T06:21:03;101309.47;;;4.02;100.00
56006;BME280;41888;44.696;10.522;2023-02-19T06:23:31;101308.06;;;3.98;100.00
56006;BME280;41888;44.696;10.522;2023-02-19T06:28:37;101308.34;;;4.04;100.00
56006;BME280;41888;44.696;10.522;2023-02-19T06:31:04;101313.75;;;4.03;100.00
56006;BME280;41888;44.696;10.522;2023-02-19T06:33:31;101313.75;;;4.03;100.00
56006;BME280;41888;44.696;10.522;2023-02-19T06:35:59;101313.88;;;4.11;100.00
56006;BME280;41888;44.696;10.522;2023-02-19T06:38:26;101319.41;;;4.27;100.00
56006;BME280;41888;44.696;10.522;2023-02-19T06:40:53;101322.09;;;4.54;100.00
56006;BME280;41888;44.696;10.522;2023-02-19T06:43:19;101311.66;;;5.35;100.00
56006;BME280;41888;44.696;10.522;2023-02-19T06:45:45;101314.50;;;5.69;100.00
56006;BME280;41888;44.696;10.522;2023-02-19T06:48:11;101308.22;;;5.87;100.00
56006;BME280;41888;44.696;10.522;2023-02-19T06:50:38;101312.97;;;5.66;100.00
56006;BME280;41888;44.696;10.522;2023-02-19T06:53:04;101316.28;;;5.50;100.00
56006;BME280;41888;44.696;10.522;2023-02-19T06:55:30;101314.94;;;5.46;100.00
56006;BME280;41888;44.696;10.522;2023-02-19T06:57:57;101316.91;;;5.44;100.00
56006;BME280;41888;44.696;10.522;2023-02-19T07:00:23;101315.31;;;5.51;100.00
56006;BME280;41888;44.696;10.522;2023-02-19T07:02:49;101315.84;;;5.55;100.00
56006;BME280;41888;44.696;10.522;2023-02-19T07:05:21;101313.66;;;5.68;100.00
56006;BME280;41888;44.696;10.522;2023-02-19T07:07:48;101317.53;;;5.91;100.00
56006;BME280;41888;44.696;10.522;2023-02-19T07:10:15;101314.88;;;5.91;100.00
56006;BME280;41888;44.696;10.522;2023-02-19T07:12:42;101320.31;;;6.08;100.00
56006;BME280;41888;44.696;10.522;2023-02-19T07:15:08;101315.28;;;6.22;100.00
56006;BME280;41888;44.696;10.522;2023-02-19T07:17:34;101322.00;;;6.43;100.00
56006;BME280;41888;44.696;10.522;2023-02-19T07:20:01;101313.88;;;6.36;100.00
56006;BME280;41888;44.696;10.522;2023-02-19T07:22:27;101311.66;;;6.49;100.00
56006;BME280;41888;44.696;10.522;2023-02-19T07:24:53;101315.50;;;6.63;100.00
56006;BME280;41888;44.696;10.522;2023-02-19T07:27:19;101324.72;;;6.85;100.00
56006;BME280;41888;44.696;10.522;2023-02-19T07:29:45;101314.63;;;6.88;100.00
56006;BME280;41888;44.696;10.522;2023-02-19T07:32:12;101303.13;;;7.05;100.00
56006;BME280;41888;44.696;10.522;2023-02-19T07:34:38;101307.44;;;7.06;100.00
56006;BME280;41888;44.696;10.522;2023-02-19T07:37:04;101310.78;;;7.25;100.00
56006;BME280;41888;44.696;10.522;2023-02-19T07:39:30;101307.72;;;7.45;100.00
56006;BME280;41888;44.696;10.522;2023-02-19T07:41:57;101300.25;;;7.57;100.00
56006;BME280;41888;44.696;10.522;2023-02-19T07:44:23;101311.84;;;7.72;100.00
56006;BME280;41888;44.696;10.522;2023-02-19T07:46:49;101310.88;;;7.73;100.00
56006;BME280;41888;44.696;10.522;2023-02-19T07:49:15;101317.00;;;8.06;100.00
56006;BME280;41888;44.696;10.522;2023-02-19T07:51:41;101324.78;;;8.32;100.00
56006;BME280;41888;44.696;10.522;2023-02-19T07:54:09;101325.44;;;8.50;100.00
56006;BME280;41888;44.696;10.522;2023-02-19T07:56:42;101316.09;;;8.62;100.00
56006;BME280;41888;44.696;10.522;2023-02-19T07:59:08;101319.06;;;8.75;100.00
56006;BME280;41888;44.696;10.522;2023-02-19T08:01:35;101310.22;;;8.91;100.00
56006;BME280;41888;44.696;10.522;2023-02-19T08:04:20;101317.56;;;9.12;100.00
56006;BME280;41888;44.696;10.522;2023-02-19T08:06:46;101313.31;;;9.33;100.00
56006;BME280;41888;44.696;10.522;2023-02-19T08:09:12;101312.09;;;9.44;100.00
56006;BME280;41888;44.696;10.522;2023-02-19T08:11:38;101316.19;;;9.47;100.00
56006;BME280;41888;44.696;10.522;2023-02-19T08:14:26;101317.69;;;9.95;100.00
56006;BME280;41888;44.696;10.522;2023-02-19T08:16:53;101320.03;;;10.12;100.00
56006;BME280;41888;44.696;10.522;2023-02-19T08:19:20;101322.84;;;10.34;100.00
56006;BME280;41888;44.696;10.522;2023-02-19T08:21:46;101327.06;;;10.28;100.00
56006;BME280;41888;44.696;10.522;2023-02-19T08:24:12;101322.69;;;10.35;100.00
56006;BME280;41888;44.696;10.522;2023-02-19T08:26:38;101318.00;;;10.37;100.00
56006;BME280;41888;44.696;10.522;2023-02-19T08:29:05;101314.53;;;10.51;100.00
56006;BME280;41888;44.696;10.522;2023-02-19T08:31:32;101318.13;;;10.73;100.00
56006;BME280;41888;44.696;10.522;2023-02-19T08:33:58;101308.22;;;11.18;100.00
56006;BME280;41888;44.696;10.522;2023-02-19T08:36:25;101310.03;;;11.53;100.00
56006;BME280;41888;44.696;10.522;2023-02-19T08:38:51;101314.66;;;11.80;100.00
56006;BME280;41888;44.696;10.522;2023-02-19T08:41:17;101307.91;;;12.34;100.00
56006;BME280;41888;44.696;10.522;2023-02-19T08:43:43;101312.28;;;12.76;100.00
56006;BME280;41888;44.696;10.522;2023-02-19T08:46:11;101306.66;;;12.98;100.00
56006;BME280;41888;44.696;10.522;2023-02-19T08:48:38;101309.13;;;13.06;100.00
56006;BME280;41888;44.696;10.522;2023-02-19T08:51:08;101318.19;;;13.53;100.00
56006;BME280;41888;44.696;10.522;2023-02-19T08:53:36;101313.88;;;13.59;100.00
56006;BME280;41888;44.696;10.522;2023-02-19T08:56:10;101315.97;;;14.49;100.00
56006;BME280;41888;44.696;10.522;2023-02-19T08:58:37;101314.09;;;15.20;100.00
56006;BME280;41888;44.696;10.522;2023-02-19T09:01:08;101317.75;;;16.69;99.29
56006;BME280;41888;44.696;10.522;2023-02-19T09:03:34;101312.00;;;18.03;91.96
56006;BME280;41888;44.696;10.522;2023-02-19T09:06:01;101323.03;;;18.83;81.96
56006;BME280;41888;44.696;10.522;2023-02-19T09:08:27;101322.28;;;18.99;80.69
56006;BME280;41888;44.696;10.522;2023-02-19T09:11:00;101316.00;;;21.06;71.49
56006;BME280;41888;44.696;10.522;2023-02-19T09:13:27;101312.97;;;20.25;71.11
56006;BME280;41888;44.696;10.522;2023-02-19T09:15:53;101310.47;;;20.02;70.61
56006;BME280;41888;44.696;10.522;2023-02-19T09:18:22;101325.88;;;20.35;69.72
56006;BME280;41888;44.696;10.522;2023-02-19T09:20:48;101325.06;;;21.38;66.09
56006;BME280;41888;44.696;10.522;2023-02-19T09:23:14;101316.38;;;20.93;64.16
56006;BME280;41888;44.696;10.522;2023-02-19T09:25:41;101313.00;;;21.24;63.29
56006;BME280;41888;44.696;10.522;2023-02-19T09:28:07;101311.75;;;20.00;67.21
56006;BME280;41888;44.696;10.522;2023-02-19T09:30:33;101313.59;;;19.37;70.43
56006;BME280;41888;44.696;10.522;2023-02-19T09:32:59;101314.06;;;20.24;65.62
56006;BME280;41888;44.696;10.522;2023-02-19T09:35:25;101315.34;;;19.44;69.59
56006;BME280;41888;44.696;10.522;2023-02-19T09:37:51;101316.06;;;19.39;70.06
56006;BME280;41888;44.696;10.522;2023-02-19T09:40:18;101307.25;;;19.72;70.74
56006;BME280;41888;44.696;10.522;2023-02-19T09:42:47;101310.56;;;19.46;71.28
56006;BME280;41888;44.696;10.522;2023-02-19T09:45:22;101303.69;;;19.55;71.52
56006;BME280;41888;44.696;10.522;2023-02-19T09:47:51;101307.66;;;19.80;69.88
56006;BME280;41888;44.696;10.522;2023-02-19T09:50:21;101307.16;;;20.00;68.90
56006;BME280;41888;44.696;10.522;2023-02-19T09:52:51;101303.91;;;20.32;67.74
56006;BME280;41888;44.696;10.522;2023-02-19T09:55:33;101302.75;;;20.44;67.21
56006;BME280;41888;44.696;10.522;2023-02-19T09:58:11;101300.28;;;20.43;66.82
56006;BME280;41888;44.696;10.522;2023-02-19T10:00:44;101301.00;;;19.15;72.08
56006;BME280;41888;44.696;10.522;2023-02-19T10:03:40;101301.88;;;19.04;73.20
56006;BME280;41888;44.696;10.522;2023-02-19T10:06:24;101286.50;;;18.64;75.18
56006;BME280;41888;44.696;10.522;2023-02-19T10:09:10;101288.56;;;18.85;72.87
56006;BME280;41888;44.696;10.522;2023-02-19T10:11:38;101286.25;;;18.31;76.60
56006;BME280;41888;44.696;10.522;2023-02-19T10:14:16;101283.81;;;18.29;77.14
56006;BME280;41888;44.696;10.522;2023-02-19T10:16:45;101276.97;;;17.80;79.10
56006;BME280;41888;44.696;10.522;2023-02-19T10:19:15;101275.06;;;16.36;85.86
56006;BME280;41888;44.696;10.522;2023-02-19T10:21:42;101271.00;;;15.59;91.77
56006;BME280;41888;44.696;10.522;2023-02-19T10:24:21;101280.72;;;15.54;92.42
56006;BME280;41888;44.696;10.522;2023-02-19T10:26:49;101275.88;;;15.31;95.95
56006;BME280;41888;44.696;10.522;2023-02-19T10:29:16;101281.63;;;15.35;97.76
56006;BME280;41888;44.696;10.522;2023-02-19T10:31:42;101268.31;;;15.21;99.53
56006;BME280;41888;44.696;10.522;2023-02-19T10:34:17;101269.38;;;15.14;99.81
56006;BME280;41888;44.696;10.522;2023-02-19T10:36:49;101270.00;;;15.54;98.13
56006;BME280;41888;44.696;10.522;2023-02-19T10:39:28;101272.72;;;15.41;97.90
56006;BME280;41888;44.696;10.522;2023-02-19T10:41:58;101273.16;;;15.38;97.42
56006;BME280;41888;44.696;10.522;2023-02-19T10:44:28;101268.78;;;15.12;100.00
56006;BME280;41888;44.696;10.522;2023-02-19T10:46:58;101264.38;;;15.17;100.00
56006;BME280;41888;44.696;10.522;2023-02-19T10:54:43;101260.13;;;15.10;100.00
56006;BME280;41888;44.696;10.522;2023-02-19T11:00:00;101254.81;;;14.97;100.00
56006;BME280;41888;44.696;10.522;2023-02-19T11:02:28;101249.78;;;15.13;100.00
56006;BME280;41888;44.696;10.522;2023-02-19T11:07:51;101225.22;;;15.48;100.00
56006;BME280;41888;44.696;10.522;2023-02-19T11:10:29;101223.78;;;15.45;99.84
56006;BME280;41888;44.696;10.522;2023-02-19T11:12:59;101230.38;;;15.81;98.11
56006;BME280;41888;44.696;10.522;2023-02-19T11:15:36;101217.13;;;15.86;97.28
56006;BME280;41888;44.696;10.522;2023-02-19T11:20:57;101228.19;;;15.96;96.44
56006;BME280;41888;44.696;10.522;2023-02-19T11:26:05;101215.75;;;15.45;100.00
56006;BME280;41888;44.696;10.522;2023-02-19T11:28:39;101226.25;;;15.53;100.00
56006;BME280;41888;44.696;10.522;2023-02-19T11:36:37;101212.72;;;15.04;100.00
56006;BME280;41888;44.696;10.522;2023-02-19T11:42:02;101198.25;;;15.11;100.00
56006;BME280;41888;44.696;10.522;2023-02-19T11:50:21;101204.56;;;16.23;95.79
56006;BME280;41888;44.696;10.522;2023-02-19T11:59:02;101183.28;;;16.03;96.80
56006;BME280;41888;44.696;10.522;2023-02-19T12:10:02;101177.03;;;16.09;96.60
56006;BME280;41888;44.696;10.522;2023-02-19T12:15:48;101162.94;;;15.52;99.78
56006;BME280;41888;44.696;10.522;2023-02-19T12:23:58;101164.63;;;14.20;100.00
56006;BME280;41888;44.696;10.522;2023-02-19T12:29:29;101162.66;;;13.95;100.00
56006;BME280;41888;44.696;10.522;2023-02-19T12:43:17;101157.94;;;15.99;99.45
56006;BME280;41888;44.696;10.522;2023-02-19T12:46:06;101162.91;;;16.50;95.12
56006;BME280;41888;44.696;10.522;2023-02-19T12:51:24;101156.00;;;16.61;93.10
56006;BME280;41888;44.696;10.522;2023-02-19T12:54:01;101154.78;;;16.57;92.64
56006;BME280;41888;44.696;10.522;2023-02-19T12:56:39;101147.94;;;16.61;92.04
56006;BME280;41888;44.696;10.522;2023-02-19T13:01:58;101144.09;;;16.02;94.43
56006;BME280;41888;44.696;10.522;2023-02-19T13:04:50;101143.00;;;15.35;99.68
56006;BME280;41888;44.696;10.522;2023-02-19T13:12:38;101137.34;;;15.93;97.76
56006;BME280;41888;44.696;10.522;2023-02-19T13:15:13;101134.00;;;15.79;97.23
56006;BME280;41888;44.696;10.522;2023-02-19T13:17:51;101130.28;;;15.80;97.44
56006;BME280;41888;44.696;10.522;2023-02-19T13:20:35;101125.53;;;15.76;96.82
56006;BME280;41888;44.696;10.522;2023-02-19T13:28:42;101107.31;;;15.84;98.33
56006;BME280;41888;44.696;10.522;2023-02-19T13:36:58;101094.72;;;15.85;96.16
56006;BME280;41888;44.696;10.522;2023-02-19T13:39:25;101097.38;;;15.67;97.09
56006;BME280;41888;44.696;10.522;2023-02-19T13:41:56;101093.97;;;15.59;98.37
56006;BME280;41888;44.696;10.522;2023-02-19T13:44:28;101087.72;;;15.84;97.31
56006;BME280;41888;44.696;10.522;2023-02-19T13:46:55;101089.66;;;15.95;96.82
56006;BME280;41888;44.696;10.522;2023-02-19T13:49:40;101086.66;;;16.03;95.83
56006;BME280;41888;44.696;10.522;2023-02-19T14:01:02;101084.66;;;15.98;96.03
56006;BME280;41888;44.696;10.522;2023-02-19T14:06:05;101073.22;;;16.03;95.98
56006;BME280;41888;44.696;10.522;2023-02-19T14:09:37;101067.56;;;15.93;95.76
56006;BME280;41888;44.696;10.522;2023-02-19T14:17:42;101054.38;;;16.39;94.11
56006;BME280;41888;44.696;10.522;2023-02-19T14:28:57;101056.16;;;16.45;92.19
56006;BME280;41888;44.696;10.522;2023-02-19T14:33:51;101051.66;;;15.80;96.48
56006;BME280;41888;44.696;10.522;2023-02-19T14:41:26;101046.06;;;15.38;98.52
56006;BME280;41888;44.696;10.522;2023-02-19T14:43:56;101031.47;;;14.85;100.00
56006;BME280;41888;44.696;10.522;2023-02-19T14:46:38;101039.06;;;14.88;100.00
56006;BME280;41888;44.696;10.522;2023-02-19T14:49:18;101039.88;;;15.38;100.00
56006;BME280;41888;44.696;10.522;2023-02-19T14:51:51;101044.34;;;15.69;99.78
56006;BME280;41888;44.696;10.522;2023-02-19T14:57:16;101045.00;;;15.39;100.00
56006;BME280;41888;44.696;10.522;2023-02-19T15:02:49;101026.28;;;15.14;100.00
56006;BME280;41888;44.696;10.522;2023-02-19T15:05:25;101033.38;;;15.27;100.00
56006;BME280;41888;44.696;10.522;2023-02-19T15:07:54;101025.19;;;15.40;100.00
56006;BME280;41888;44.696;10.522;2023-02-19T15:10:22;101027.66;;;15.42;99.82
56006;BME280;41888;44.696;10.522;2023-02-19T15:12:56;101034.88;;;15.41;100.00
56006;BME280;41888;44.696;10.522;2023-02-19T15:15:26;101028.13;;;15.14;100.00
56006;BME280;41888;44.696;10.522;2023-02-19T15:17:55;101029.63;;;15.10;100.00
56006;BME280;41888;44.696;10.522;2023-02-19T15:20:24;101034.41;;;15.26;100.00
56006;BME280;41888;44.696;10.522;2023-02-19T15:22:52;101032.84;;;14.94;100.00
56006;BME280;41888;44.696;10.522;2023-02-19T15:25:20;101022.78;;;14.89;100.00
56006;BME280;41888;44.696;10.522;2023-02-19T15:27:47;101029.13;;;14.95;100.00
56006;BME280;41888;44.696;10.522;2023-02-19T15:30:26;101018.00;;;14.91;100.00
56006;BME280;41888;44.696;10.522;2023-02-19T15:32:58;101020.59;;;14.79;100.00
56006;BME280;41888;44.696;10.522;2023-02-19T15:35:26;101020.78;;;14.53;100.00
56006;BME280;41888;44.696;10.522;2023-02-19T15:37:54;101032.66;;;14.64;100.00
56006;BME280;41888;44.696;10.522;2023-02-19T15:40:32;101031.66;;;14.58;100.00
56006;BME280;41888;44.696;10.522;2023-02-19T15:42:59;101031.66;;;14.58;100.00
56006;BME280;41888;44.696;10.522;2023-02-19T15:47:59;101031.50;;;14.53;100.00